Latest Weather Observations for Port Augusta

IDS60801

Issued at 2:32 pm CDT Saturday 7 March 2015 (issued every 30 minutes, with the page automatically refreshed every 10 minutes)

About weather observations | Map of weather stations | Latest weather observations for SA | Other Formats
Station Details ID: 018201 Name: PORT AUGUSTA AERO Lat: -32.51 Lon: 137.72 Height: 13.97 m
Data from the previous 72 hours. | See also: Recent months at Port Augusta
Date/Time
CDT
Temp
°C
App
Temp
°C
Dew
Point
Rel
Hum
%
Delta-T
°C
Wind Press
QNH
hPa
Press
MSL
hPa
Rain
since 9 am
mm
Dir
 
Spd
km/h
Gust
km/h
Spd
kts
Gust
kts
07/02:30pm 25.2 20.6 8.2 34 9.1 SE 22 30 12 16 1014.0 - 0.0
07/02:00pm 25.4 21.2 9.7 37 8.6 SSE 22 35 12 19 1014.2 - 0.0
07/01:30pm 24.5 20.1 10.4 41 7.8 SSE 24 33 13 18 1014.8 - 0.0
07/01:00pm 24.2 20.2 11.9 46 7.0 SSE 24 35 13 19 1015.2 - 0.0
07/12:30pm 23.0 18.9 12.6 52 5.9 SSE 26 37 14 20 1015.5 - 0.0
07/12:00pm 22.9 19.0 12.2 51 6.1 SE 24 37 13 20 1016.0 1016.0 0.0
07/11:30am 22.2 18.1 12.7 55 5.4 SE 26 35 14 19 1016.3 - 0.0
07/11:00am 21.1 18.4 12.8 59 4.7 SE 19 28 10 15 1016.5 - 0.0
07/10:30am 20.5 17.7 12.5 60 4.5 SSE 19 32 10 17 1016.6 - 0.0
07/10:00am 20.6 18.3 14.0 66 3.8 SE 19 24 10 13 1016.7 - 0.0
07/09:30am 19.4 17.1 14.0 71 3.1 SE 19 26 10 14 1016.7 - 0.0
07/09:00am 18.8 16.3 13.4 71 3.1 ESE 19 24 10 13 1016.8 - 0.0
07/08:30am 18.6 16.5 13.7 73 2.8 SE 17 22 9 12 1016.7 - 0.0
07/08:00am 18.1 16.0 13.6 75 2.6 SSE 17 20 9 11 1016.2 - 0.0
07/07:30am 17.8 16.0 13.3 75 2.5 SSE 15 19 8 10 1016.0 - 0.0
07/07:00am 17.7 15.9 13.2 75 2.5 SSE 15 22 8 12 1015.8 - 0.0
07/06:30am 17.6 15.8 13.3 76 2.4 SSE 15 19 8 10 1015.1 - 0.0
07/06:00am 17.6 15.3 13.1 75 2.5 SE 17 20 9 11 1014.6 - 0.0
07/05:30am 17.4 14.8 13.1 76 2.4 SSE 19 24 10 13 1014.5 - 0.0
07/05:12am 17.4 14.6 13.1 76 2.4 SE 20 26 11 14 1014.4 - 0.0
07/05:00am 17.4 14.6 13.1 76 2.4 SE 20 26 11 14 1014.6 - 0.0
07/04:30am 17.1 14.5 13.2 78 2.2 SE 19 24 10 13 1014.5 - 0.0
07/04:17am 17.1 14.2 13.0 77 2.3 SE 20 24 11 13 1014.5 - 0.0
07/04:02am 17.3 14.7 13.2 77 2.3 SE 19 24 10 13 1014.6 - 0.0
07/04:00am 17.3 14.7 13.2 77 2.3 SE 19 24 10 13 1014.6 - 0.0
07/03:44am 17.2 14.6 13.1 77 2.3 SSE 19 24 10 13 1014.9 - 0.0
07/03:30am 17.2 14.3 12.9 76 2.4 SSE 20 28 11 15 1014.9 - 0.0
07/03:08am 17.3 14.5 13.2 77 2.3 SE 20 28 11 15 1015.0 - 0.0
07/03:00am 17.4 14.8 13.3 77 2.3 SE 19 26 10 14 1015.1 - 0.0
07/02:30am 17.6 15.0 13.3 76 2.4 SE 19 26 10 14 1015.3 - 0.0
07/02:00am 17.9 15.2 13.4 75 2.5 SE 20 28 11 15 1015.8 - 0.0
07/01:48am 17.9 15.4 13.4 75 2.5 SE 19 28 10 15 1016.0 - 0.0
07/01:32am 18.0 15.4 13.3 74 2.7 SE 19 24 10 13 1016.2 - 0.0
07/01:30am 18.1 15.6 13.4 74 2.7 SE 19 24 10 13 1016.2 - 0.0
07/01:00am 18.3 15.8 13.4 73 2.8 SE 19 26 10 14 1016.2 - 0.0
07/12:30am 18.7 16.7 14.0 74 2.7 SE 17 20 9 11 1016.5 - 0.0
07/12:25am 18.9 17.0 14.2 74 2.7 SE 17 26 9 14 1016.5 - 0.0
07/12:00am 19.1 16.5 13.9 72 3.0 SSE 20 28 11 15 1016.4 - 0.0
 
Date/Time
CDT
Temp
°C
App
Temp
°C
Dew
Point
Rel
Hum
%
Delta-T
°C
Wind Press
QNH
hPa
Press
MSL
hPa
Rain
since 9 am
mm
Dir
 
Spd
km/h
Gust
km/h
Spd
kts
Gust
kts
06/11:30pm 19.4 16.5 14.0 71 3.1 S 22 30 12 16 1016.7 - 0.0
06/11:00pm 19.4 16.0 13.6 69 3.3 S 24 33 13 18 1016.7 - 0.0
06/10:30pm 19.5 15.6 13.2 67 3.6 SSE 26 35 14 19 1016.8 - 0.0
06/10:00pm 19.6 15.5 12.8 65 3.8 SSE 26 35 14 19 1016.8 - 0.0
06/09:30pm 19.7 15.6 12.7 64 3.9 SSE 26 32 14 17 1016.7 - 0.0
06/09:00pm 20.0 15.5 12.5 62 4.2 SSE 28 37 15 20 1016.4 - 0.0
06/08:30pm 20.6 16.0 12.3 59 4.7 SSE 28 37 15 20 1015.8 - 0.0
06/08:00pm 21.8 17.3 10.0 47 6.4 S 24 32 13 17 1015.7 - 0.0
06/07:30pm 22.3 19.0 11.7 51 5.9 SE 20 28 11 15 1015.6 - 0.0
06/07:00pm 23.1 19.0 11.5 48 6.5 SE 24 32 13 17 1015.3 - 0.0
06/06:30pm 23.9 19.7 11.2 44 7.1 SE 24 33 13 18 1015.1 - 0.0
06/06:00pm 24.8 20.1 10.7 41 7.9 SSE 26 37 14 20 1015.3 - 0.0
06/05:30pm 25.1 20.3 10.2 39 8.3 SSE 26 35 14 19 1015.5 - 0.0
06/05:00pm 25.0 20.0 9.7 38 8.4 SSE 26 37 14 20 1015.3 - 0.0
06/04:30pm 24.9 19.1 9.6 38 8.4 SSE 30 43 16 23 1015.7 - 0.0
06/04:00pm 25.4 19.9 9.3 36 8.8 SSE 28 39 15 21 1015.9 - 0.0
06/03:30pm 24.4 18.8 8.8 37 8.4 SSE 28 41 15 22 1016.2 - 0.0
06/03:00pm 25.1 18.7 8.6 35 8.9 SE 32 43 17 23 1016.7 1016.7 0.0
06/02:30pm 24.6 18.3 9.0 37 8.4 SSE 32 41 17 22 1017.1 - 0.0
06/02:00pm 22.7 15.9 9.1 42 7.3 SSE 35 52 19 28 1017.4 - 0.0
06/01:58pm 23.1 16.7 9.5 42 7.4 SSE 33 52 18 28 1017.4 - 0.0
06/01:30pm 23.0 16.8 10.1 44 7.1 SSE 33 46 18 25 1017.8 - 0.0
06/01:00pm 22.2 16.4 10.7 48 6.3 SSE 32 43 17 23 1018.2 - 0.0
06/12:30pm 20.7 14.8 11.1 54 5.3 SE 33 44 18 24 1018.6 - 0.0
06/12:00pm 20.7 14.7 10.8 53 5.4 SE 33 46 18 25 1019.0 1019.0 0.0
06/11:30am 20.6 14.7 11.0 54 5.3 SSE 33 44 18 24 1019.6 - 0.0
06/11:00am 20.0 13.7 11.2 57 4.8 SE 35 46 19 25 1019.7 - 0.0
06/10:30am 19.5 13.2 11.0 58 4.6 SSE 35 46 19 25 1019.7 - 0.0
06/10:00am 18.9 12.6 11.0 60 4.3 SSE 35 46 19 25 1019.5 - 0.0
06/09:30am 18.3 12.0 10.9 62 4.0 SSE 35 44 19 24 1019.5 - 0.0
06/09:00am 17.7 11.9 10.8 64 3.7 SSE 32 39 17 21 1019.5 1019.5 0.2
06/08:30am 17.2 12.5 10.8 66 3.4 SSE 26 35 14 19 1019.5 - 0.2
06/08:16am 16.8 13.0 11.1 69 3.1 SE 22 35 12 19 - - 0.2
06/08:00am 15.9 12.5 10.4 70 2.9 SE 19 28 10 15 1019.6 - 0.2
06/07:30am 15.4 11.8 10.6 73 2.5 SE 20 28 11 15 1019.3 - 0.2
06/07:10am 15.8 11.1 10.8 72 2.7 SSE 26 35 14 19 1019.4 - 0.2
06/07:00am 15.9 11.4 11.3 74 2.5 SSE 26 33 14 18 1019.4 - 0.2
06/06:30am 14.0 10.8 9.8 76 2.2 SSE 17 19 9 10 1019.4 - 0.2
06/06:00am 14.4 10.8 9.8 74 2.4 SSE 19 22 10 12 1019.3 1019.3 0.2
06/05:30am 14.7 11.0 10.3 75 2.3 SE 20 24 11 13 1019.2 - 0.2
06/05:00am 14.9 11.2 10.1 73 2.5 SE 20 26 11 14 1019.6 - 0.2
06/04:30am 15.3 10.8 10.1 71 2.7 SE 24 30 13 16 1019.8 - 0.2
06/04:00am 16.0 11.6 10.3 69 3.0 SSE 24 30 13 16 1019.7 - 0.2
06/03:30am 15.9 12.3 10.0 68 3.1 SSE 19 22 10 12 1020.3 - 0.2
06/03:00am 16.0 12.6 10.7 71 2.8 SSE 19 24 10 13 1020.7 1020.7 0.2
06/02:30am 16.2 12.8 10.7 70 2.9 SSE 19 24 10 13 1020.4 - 0.2
06/02:00am 16.2 12.6 10.5 69 3.0 SSE 20 26 11 14 1020.8 - 0.2
06/01:30am 16.5 12.8 10.1 66 3.4 S 20 26 11 14 1021.2 - 0.2
06/01:00am 16.9 13.4 10.1 64 3.6 S 19 24 10 13 1021.5 - 0.2
06/12:30am 17.2 13.7 8.9 58 4.3 S 17 20 9 11 1021.3 - 0.2
06/12:00am 17.4 13.3 8.0 54 4.8 S 19 24 10 13 1021.3 1021.3 0.2
 
Date/Time
CDT
Temp
°C
App
Temp
°C
Dew
Point
Rel
Hum
%
Delta-T
°C
Wind Press
QNH
hPa
Press
MSL
hPa
Rain
since 9 am
mm
Dir
 
Spd
km/h
Gust
km/h
Spd
kts
Gust
kts
05/11:30pm 18.2 13.3 8.5 53 5.0 S 24 35 13 19 1021.5 - 0.2
05/11:00pm 18.7 13.3 9.5 55 4.9 S 28 37 15 20 1021.5 - 0.2
05/10:30pm 19.0 12.9 11.6 62 4.1 S 35 48 19 26 1021.4 - 0.2
05/10:00pm 19.1 12.3 11.9 63 4.0 S 39 48 21 26 1021.2 - 0.2
05/09:34pm 19.2 13.6 11.5 61 4.2 S 32 43 17 23 1021.2 - 0.2
05/09:30pm 19.3 14.0 11.1 59 4.5 S 30 41 16 22 1021.2 - 0.2
05/09:15pm 19.3 13.5 10.8 58 4.6 S 32 43 17 23 1020.8 - 0.2
05/09:00pm 19.5 13.7 10.8 57 4.7 S 32 43 17 23 1020.6 1020.6 0.2
05/08:30pm 19.8 13.7 10.5 55 5.0 S 33 46 18 25 1020.2 - 0.2
05/08:00pm 20.6 14.3 8.9 47 6.2 S 32 39 17 21 1019.6 - 0.2
05/07:30pm 21.9 16.0 7.7 40 7.4 S 28 37 15 20 1019.4 - 0.2
05/07:00pm 23.3 17.4 7.4 36 8.3 SSE 28 35 15 19 1019.2 - 0.2
05/06:30pm 23.6 17.4 7.7 36 8.4 SSE 30 39 16 21 1018.9 - 0.2
05/06:00pm 24.3 18.7 7.0 33 9.0 SSE 26 37 14 20 1018.7 1018.7 0.2
05/05:30pm 25.0 18.9 6.7 31 9.5 S 28 37 15 20 1018.6 - 0.2
05/05:00pm 24.9 18.1 7.5 33 9.2 S 33 52 18 28 1018.7 - 0.2
05/04:55pm 25.3 18.3 7.0 31 9.6 S 33 52 18 28 1018.6 - 0.2
05/04:30pm 24.9 17.7 6.1 30 9.7 S 33 46 18 25 1018.8 - 0.2
05/04:00pm 24.8 17.6 6.1 30 9.6 S 33 44 18 24 1019.3 - 0.2
05/03:30pm 23.7 16.7 6.9 34 8.7 SSE 33 43 18 23 1019.8 - 0.2
05/03:00pm 22.9 15.8 8.2 39 7.7 S 35 44 19 24 1020.0 1020.0 0.2
05/02:30pm 23.0 16.0 8.3 39 7.8 S 35 44 19 24 1020.4 - 0.2
05/02:25pm 22.9 15.9 8.6 40 7.6 S 35 46 19 25 1020.5 - 0.2
05/02:24pm 23.0 15.6 8.3 39 7.8 S 37 46 20 25 1020.5 - 0.2
05/02:00pm 23.3 16.3 8.6 39 7.8 S 35 46 19 25 1020.6 - 0.2
05/01:50pm 23.5 16.1 8.4 38 8.0 S 37 80 20 43 1020.5 - 0.2
05/12:40pm - - - - - S 41 54 22 29 1021.1 - 0.0
05/12:33pm 23.5 15.3 8.0 37 8.2 S 41 54 22 29 1021.2 - 0.0
05/12:30pm 23.2 14.8 7.3 36 8.3 S 41 50 22 27 1021.2 - 0.0
05/12:00pm 22.2 14.9 8.7 42 7.1 SSE 37 50 20 27 1021.9 1021.9 0.0
05/11:30am 21.5 14.3 9.1 45 6.6 SSE 37 48 20 26 1022.2 - 0.0
05/11:00am 20.7 13.7 9.9 50 5.8 SSE 37 48 20 26 1022.0 - 0.0
05/10:30am 21.4 14.7 10.9 51 5.8 SSE 37 52 20 28 1021.6 - 0.0
05/10:00am 20.3 12.9 9.8 51 5.6 SSE 39 52 21 28 1021.5 - 0.0
05/09:30am 19.7 13.1 11.2 58 4.7 SSE 37 48 20 26 1021.8 - 0.0
05/09:00am 19.2 13.7 12.0 63 4.0 S 32 41 17 22 1021.3 1021.3 0.0
05/08:30am 18.6 13.2 12.1 66 3.6 S 32 41 17 22 1021.0 - 0.0
05/08:00am 17.6 13.1 12.7 73 2.7 SSE 28 35 15 19 1020.8 - 0.0
05/07:30am 17.2 12.4 14.7 85 1.4 SSE 33 43 18 23 1020.7 - 0.0
05/07:00am 17.1 13.3 14.7 86 1.4 S 28 39 15 21 1020.4 - 0.0
05/06:30am 17.4 14.7 14.5 83 1.7 S 22 30 12 16 1020.1 - 0.0
05/06:19am 17.5 14.4 14.4 82 1.8 S 24 32 13 17 1020.1 - 0.0
05/06:04am 17.5 12.4 13.8 79 2.1 S 33 43 18 23 1019.9 - 0.0
05/06:00am 17.7 12.5 13.4 76 2.4 S 33 43 18 23 1019.8 1019.8 0.0
05/05:30am 18.4 13.8 12.2 67 3.4 SSW 28 37 15 20 1019.4 - 0.0
05/05:00am 18.4 13.8 12.2 67 3.4 SSW 28 35 15 19 1019.4 - 0.0
05/04:30am 18.4 13.8 11.2 63 3.9 SSW 26 35 14 19 1019.4 - 0.0
05/04:00am 17.9 13.2 10.5 62 4.0 SSW 26 35 14 19 1019.1 - 0.0
05/03:30am 17.8 13.0 10.4 62 4.0 SSW 26 35 14 19 1019.2 - 0.0
05/03:00am 18.1 12.1 10.2 60 4.2 SSW 32 39 17 21 1019.2 1019.2 0.0
05/02:30am 18.3 12.8 10.4 60 4.2 SSW 30 37 16 20 1019.8 - 0.0
05/02:00am 18.5 12.6 10.3 59 4.4 SSW 32 41 17 22 1019.9 - 0.0
05/01:30am 18.8 13.0 10.9 60 4.3 SSW 32 43 17 23 1019.6 - 0.0
05/01:00am 19.2 13.0 11.5 61 4.2 S 35 44 19 24 1019.5 - 0.0
05/12:30am 20.2 14.6 13.2 64 4.0 S 35 46 19 25 1019.5 - 0.0
05/12:00am 20.1 15.4 13.3 65 3.9 S 30 43 16 23 1019.5 1019.5 0.0
 
Date/Time
CDT
Temp
°C
App
Temp
°C
Dew
Point
Rel
Hum
%
Delta-T
°C
Wind Press
QNH
hPa
Press
MSL
hPa
Rain
since 9 am
mm
Dir
 
Spd
km/h
Gust
km/h
Spd
kts
Gust
kts
04/11:30pm 20.0 15.5 13.7 67 3.6 S 30 37 16 20 1019.4 - 0.0
04/11:00pm 19.7 15.8 13.4 67 3.6 S 26 35 14 19 1019.6 - 0.0
04/10:30pm 19.7 16.1 13.2 66 3.7 S 24 33 13 18 1019.8 - 0.0
04/10:00pm 20.0 15.4 13.5 66 3.7 S 30 37 16 20 1019.6 - 0.0
04/09:30pm 20.0 14.9 13.2 65 3.9 SSE 32 41 17 22 1019.2 - 0.0
04/09:00pm 20.3 15.6 12.0 59 4.6 S 28 35 15 19 1018.6 1018.6 0.0
04/08:30pm 20.7 16.6 11.3 55 5.2 SSE 24 32 13 17 1018.2 - 0.0
04/08:00pm 21.2 16.9 12.1 56 5.1 SSE 26 32 14 17 1017.7 - 0.0
04/07:30pm 21.7 17.4 13.1 58 4.9 SSE 28 37 15 20 1017.5 - 0.0
04/07:00pm 22.6 17.1 12.5 53 5.7 SSE 33 44 18 24 1017.1 - 0.0
04/06:30pm 23.4 17.5 12.4 50 6.3 SSE 35 44 19 24 1016.8 - 0.0
04/06:00pm 23.6 17.7 13.5 53 5.9 SE 37 46 20 25 1016.4 1016.4 0.0
04/05:30pm 24.8 19.4 12.7 47 7.0 SE 33 43 18 23 1016.4 - 0.0
04/05:00pm 25.4 19.7 11.9 43 7.7 SE 33 44 18 24 1016.1 - 0.0
04/04:30pm 25.9 18.8 9.7 36 8.9 SE 37 44 20 24 1015.9 - 0.0
04/04:00pm 25.7 19.6 10.3 38 8.6 SE 33 41 18 22 1016.1 - 0.0
04/03:30pm 25.9 20.5 10.9 39 8.4 SE 30 39 16 21 1016.2 - 0.0
04/03:00pm 24.1 18.2 8.9 38 8.2 SE 30 41 16 22 1016.4 1016.4 0.0

Other Formats:

Comma delimited format used in spreadsheet applications
http://www.bom.gov.au/fwo/IDS60801/IDS60801.95666.axf

JavaScript Object Notation format (JSON) in row-major order
http://www.bom.gov.au/fwo/IDS60801/IDS60801.95666.json